createdAt,value
2023-02-07T07:58:37.677Z,16.67
2023-02-07T08:01:05.910Z,15.45
2023-02-07T08:03:33.262Z,21.25
2023-02-07T08:06:00.673Z,14.75
2023-02-07T08:08:28.012Z,16.90
2023-02-07T08:10:55.395Z,16.73
2023-02-07T08:13:23.367Z,16.52
2023-02-07T08:15:51.716Z,17.83
2023-02-07T08:18:19.007Z,16.20
2023-02-07T08:20:48.425Z,16.52
2023-02-07T08:23:15.905Z,16.15
2023-02-07T08:25:43.976Z,14.65
2023-02-07T08:28:11.524Z,16.63
2023-02-07T08:30:39.232Z,15.80
2023-02-07T08:33:06.771Z,16.90
2023-02-07T08:35:34.196Z,19.45
2023-02-07T08:38:01.533Z,15.10
2023-02-07T08:40:29.868Z,20.35
2023-02-07T08:42:57.500Z,16.50
2023-02-07T08:45:25.031Z,14.85
2023-02-07T08:47:52.619Z,14.93
2023-02-07T08:50:20.404Z,13.40
2023-02-07T08:52:47.686Z,14.70
2023-02-07T08:55:15.137Z,16.08
2023-02-07T08:57:42.455Z,14.10
2023-02-07T09:00:11.449Z,15.27
2023-02-07T09:02:38.990Z,16.05
2023-02-07T09:05:07.234Z,14.02
2023-02-07T09:07:34.571Z,16.70
2023-02-07T09:10:02.883Z,13.15
2023-02-07T09:12:31.204Z,15.73
2023-02-07T09:14:58.537Z,17.40
2023-02-07T09:17:26.109Z,14.52
2023-02-07T09:19:53.483Z,17.60
2023-02-07T09:22:20.850Z,13.00
2023-02-07T09:24:48.166Z,12.48
2023-02-07T09:27:15.532Z,27.20
2023-02-07T09:29:43.342Z,13.95
2023-02-07T09:32:10.654Z,24.25
2023-02-07T09:34:37.969Z,12.30
2023-02-07T09:37:05.414Z,15.68
2023-02-07T09:39:35.872Z,12.68
2023-02-07T09:42:42.983Z,12.98
2023-02-07T09:45:24.467Z,16.27
2023-02-07T09:48:04.341Z,16.67
2023-02-07T09:50:41.667Z,13.13
2023-02-07T09:53:27.259Z,14.27
2023-02-07T09:56:01.660Z,11.90
2023-02-07T09:59:21.118Z,12.25
2023-02-07T10:01:59.205Z,14.60
2023-02-07T10:04:39.577Z,16.48
2023-02-07T10:07:13.252Z,13.60
2023-02-07T10:09:45.215Z,13.52
2023-02-07T10:13:08.488Z,16.92
2023-02-07T10:16:11.979Z,13.30
2023-02-07T10:19:11.350Z,13.95
2023-02-07T10:22:44.248Z,12.93
2023-02-07T10:25:44.628Z,12.63
2023-02-07T10:28:14.866Z,12.45
2023-02-07T10:30:53.093Z,12.85
2023-02-07T10:33:37.199Z,14.07
2023-02-07T10:36:14.946Z,12.70
2023-02-07T10:39:13.170Z,10.77
2023-02-07T10:41:44.818Z,15.23
2023-02-07T10:44:20.540Z,12.30
2023-02-07T10:47:07.110Z,12.07
2023-02-07T10:49:38.140Z,12.38
2023-02-07T10:52:44.755Z,11.40
2023-02-07T10:55:18.352Z,14.73
2023-02-07T10:58:02.600Z,14.48
2023-02-07T11:00:34.463Z,13.25
2023-02-07T11:03:13.352Z,15.38
2023-02-07T11:05:54.425Z,11.27
2023-02-07T11:08:35.335Z,22.10
2023-02-07T11:11:40.733Z,13.23
2023-02-07T11:14:16.557Z,14.18
2023-02-07T11:16:45.658Z,13.85
2023-02-07T11:19:22.993Z,19.15
2023-02-07T11:21:54.278Z,15.77
2023-02-07T11:24:35.766Z,12.70
2023-02-07T11:27:19.402Z,12.40
2023-02-07T11:30:08.064Z,13.30
2023-02-07T11:32:38.379Z,13.48
2023-02-07T11:35:09.576Z,14.35
2023-02-07T11:38:06.254Z,13.30
2023-02-07T11:40:50.601Z,12.38
2023-02-07T11:43:22.148Z,12.52
2023-02-07T11:46:05.732Z,12.82
2023-02-07T11:48:40.169Z,17.00
2023-02-07T11:51:15.227Z,13.38
2023-02-07T11:53:51.547Z,13.88
2023-02-07T11:56:39.519Z,13.65
2023-02-07T11:59:22.297Z,13.32
2023-02-07T12:02:26.275Z,13.77
2023-02-07T12:04:57.078Z,13.05
2023-02-07T12:07:52.873Z,14.73
2023-02-07T12:10:40.977Z,16.63
2023-02-07T12:13:37.113Z,13.75
2023-02-07T12:16:18.027Z,12.77
2023-02-07T12:19:01.677Z,9.75
2023-02-07T12:22:18.292Z,12.68
2023-02-07T12:25:17.846Z,11.73
2023-02-07T12:27:51.850Z,11.07
2023-02-07T12:30:46.142Z,12.18
2023-02-07T12:33:42.009Z,11.70
2023-02-07T12:36:36.355Z,13.05
2023-02-07T12:39:54.748Z,11.65
2023-02-07T12:42:43.258Z,10.93
2023-02-07T12:45:36.339Z,11.35
2023-02-07T12:49:03.155Z,11.60
2023-02-07T12:52:16.027Z,10.85
2023-02-07T12:55:33.205Z,11.32
2023-02-07T12:58:43.031Z,12.75
2023-02-07T13:02:06.614Z,11.23
2023-02-07T13:05:34.904Z,11.77
2023-02-07T13:09:11.765Z,14.55
2023-02-07T13:12:03.952Z,11.57
2023-02-07T13:14:56.859Z,11.45
2023-02-07T13:18:07.943Z,11.27
2023-02-07T13:21:01.178Z,12.48
2023-02-07T13:23:39.080Z,11.02
2023-02-07T13:26:31.583Z,12.00
2023-02-07T13:29:14.771Z,13.10
2023-02-07T13:32:00.252Z,14.45
2023-02-07T13:34:40.704Z,11.98
2023-02-07T13:37:17.051Z,15.45
2023-02-07T13:40:33.141Z,11.55
2023-02-07T13:43:31.123Z,15.55
2023-02-07T13:46:27.177Z,14.48
2023-02-07T13:49:22.229Z,18.48
2023-02-07T13:52:45.092Z,16.50
2023-02-07T13:55:39.535Z,11.88
2023-02-07T13:58:54.287Z,14.18
2023-02-07T14:01:32.573Z,13.32
2023-02-07T14:04:12.880Z,12.77
2023-02-07T14:07:02.940Z,14.23
2023-02-07T14:09:46.883Z,14.63
2023-02-07T14:12:31.525Z,13.65
2023-02-07T14:15:31.070Z,12.60
2023-02-07T14:18:06.747Z,15.50
2023-02-07T14:20:38.128Z,13.15
2023-02-07T14:23:19.675Z,12.77
2023-02-07T14:25:47.517Z,15.48
2023-02-07T14:28:39.476Z,11.95
2023-02-07T14:31:24.353Z,11.57
2023-02-07T14:34:15.618Z,12.70
2023-02-07T14:36:43.184Z,12.30
2023-02-07T14:39:19.144Z,12.27
2023-02-07T14:41:51.064Z,16.50
2023-02-07T14:44:37.869Z,14.32
2023-02-07T14:47:16.650Z,12.07
2023-02-07T14:49:51.221Z,14.73
2023-02-07T14:52:31.677Z,12.77
2023-02-07T14:55:15.563Z,15.38
2023-02-07T14:58:24.865Z,11.00
2023-02-07T15:01:01.090Z,18.63
2023-02-07T15:03:34.593Z,12.20
2023-02-07T15:06:21.033Z,13.63
2023-02-07T15:09:02.011Z,10.65
2023-02-07T15:11:31.085Z,13.43
2023-02-07T15:14:03.289Z,13.50
2023-02-07T15:16:40.154Z,13.50
2023-02-07T15:19:40.234Z,12.80
2023-02-07T15:22:23.956Z,15.65
2023-02-07T15:24:55.740Z,13.27
2023-02-07T15:30:07.082Z,12.73
2023-02-07T15:32:47.352Z,12.32
2023-02-07T15:35:21.016Z,14.65
2023-02-07T15:37:50.272Z,11.90
2023-02-07T15:40:26.416Z,13.18
2023-02-07T15:42:58.096Z,10.75
2023-02-07T15:45:35.348Z,15.10
2023-02-07T15:48:15.226Z,12.48
2023-02-07T15:50:42.552Z,13.57
2023-02-07T15:53:25.583Z,14.68
2023-02-07T15:55:53.872Z,15.73
2023-02-07T15:58:35.782Z,13.10
2023-02-07T16:01:15.017Z,14.45
2023-02-07T16:03:47.323Z,13.07
2023-02-07T16:06:29.162Z,12.75
2023-02-07T16:09:01.952Z,14.20
2023-02-07T16:11:30.501Z,12.77
2023-02-07T16:14:12.465Z,12.60
2023-02-07T16:16:56.954Z,14.13
2023-02-07T16:19:33.022Z,14.27
2023-02-07T16:22:18.364Z,13.38
2023-02-07T16:24:49.817Z,18.35
2023-02-07T16:27:27.371Z,13.65
2023-02-07T16:29:56.963Z,12.55
2023-02-07T16:32:33.828Z,12.20
2023-02-07T16:35:01.179Z,14.48
2023-02-07T16:37:29.473Z,14.63
2023-02-07T16:39:56.850Z,13.32
2023-02-07T16:42:24.251Z,12.57
2023-02-07T16:44:51.550Z,14.52
2023-02-07T16:49:52.200Z,13.18
2023-02-07T16:52:19.513Z,14.73
2023-02-07T16:54:47.695Z,21.35
2023-02-07T16:57:15.792Z,19.25
2023-02-07T16:59:43.123Z,15.45
2023-02-07T17:02:17.763Z,14.75
2023-02-07T17:04:45.124Z,15.05
2023-02-07T17:07:12.895Z,17.25
2023-02-07T17:09:40.213Z,15.95
2023-02-07T17:12:08.944Z,17.00
2023-02-07T17:14:38.158Z,14.70
2023-02-07T17:17:05.473Z,14.75
2023-02-07T17:19:32.979Z,17.25
2023-02-07T17:22:00.257Z,15.85
2023-02-07T17:24:27.583Z,17.50
2023-02-07T17:26:56.385Z,16.88
2023-02-07T17:29:24.237Z,17.65
2023-02-07T17:31:52.504Z,15.30
2023-02-07T17:34:19.808Z,15.77
2023-02-07T17:36:51.048Z,15.45
2023-02-07T17:39:20.519Z,15.82
2023-02-07T17:41:48.487Z,18.08
2023-02-07T17:44:21.035Z,16.10
2023-02-07T17:46:48.424Z,17.17
2023-02-07T17:49:17.796Z,21.08
2023-02-07T17:51:45.243Z,20.23
2023-02-07T17:54:12.549Z,16.80
2023-02-07T17:56:39.815Z,18.90
2023-02-07T17:59:17.628Z,18.15
2023-02-07T18:01:44.912Z,16.83
2023-02-07T18:04:12.241Z,23.17
2023-02-07T18:06:39.898Z,21.02
2023-02-07T18:09:18.332Z,21.38
2023-02-07T18:11:45.662Z,19.20
2023-02-07T18:14:12.987Z,23.60
2023-02-07T18:16:41.561Z,18.35
2023-02-07T18:19:14.822Z,19.45
2023-02-07T18:21:42.306Z,19.27
2023-02-07T18:24:11.171Z,18.90
2023-02-07T18:26:38.502Z,18.58
2023-02-07T18:29:05.834Z,21.15
2023-02-07T18:31:33.380Z,19.77
2023-02-07T18:34:00.705Z,25.10
2023-02-07T18:36:29.998Z,20.40
2023-02-07T18:38:58.581Z,23.55
2023-02-07T18:41:26.760Z,17.98
2023-02-07T18:43:54.082Z,21.20
2023-02-07T18:46:22.169Z,24.15
2023-02-07T18:48:55.207Z,20.88
2023-02-07T18:51:23.932Z,21.95
2023-02-07T18:53:54.227Z,22.27
2023-02-07T18:56:26.261Z,24.38
2023-02-07T18:58:56.581Z,32.90
2023-02-07T19:01:27.899Z,26.02
2023-02-07T19:03:58.295Z,21.83
2023-02-07T19:06:33.821Z,24.95
2023-02-07T19:09:01.577Z,27.70
2023-02-07T19:11:28.879Z,24.65
2023-02-07T19:13:56.200Z,20.73
2023-02-07T19:16:24.829Z,27.13
2023-02-07T19:18:52.428Z,24.83
2023-02-07T19:21:28.075Z,25.02
2023-02-07T19:23:58.395Z,23.05
2023-02-07T19:26:26.492Z,24.23
2023-02-07T19:28:54.281Z,26.08
2023-02-07T19:31:22.488Z,23.55
2023-02-07T19:33:51.993Z,27.75
2023-02-07T19:36:23.554Z,25.92
2023-02-07T19:38:54.188Z,23.20
2023-02-07T19:41:27.963Z,23.27
2023-02-07T19:43:55.554Z,23.35
2023-02-07T19:46:25.066Z,25.27
2023-02-07T19:48:54.698Z,21.90
2023-02-07T19:51:29.513Z,24.20
2023-02-07T19:53:57.027Z,21.63
2023-02-07T19:56:32.168Z,26.38
2023-02-07T19:59:06.054Z,24.83
2023-02-07T20:01:37.994Z,24.00
2023-02-07T20:04:06.007Z,23.75
2023-02-07T20:06:35.216Z,24.60
2023-02-07T20:09:07.024Z,25.25
2023-02-07T20:11:35.009Z,26.27
2023-02-07T20:14:04.043Z,22.52
2023-02-07T20:16:37.305Z,24.00
2023-02-07T20:19:07.935Z,20.40
